Time;durP1;ratioP1;P1;durP2;ratioP2;P2;SDS_P1;SDS_P2;PMS_P1;PMS_P2;Temp;Humidity;BMP_temperature;BMP_pressure;BME280_temperature;BME280_humidity;BME280_pressure;Samples;Min_cycle;Max_cycle;Signal;HPM_P1;HPM_P2
2022/04/07 00:01:17;;;;;;;5.30;4.87;;;11.80;99.90;;;;;;5052083;28;20515;-67
2022/04/07 00:03:43;;;;;;;5.60;5.20;;;11.80;99.90;;;;;;5050542;28;20419;-67
2022/04/07 00:06:13;;;;;;;5.77;5.37;;;11.70;99.90;;;;;;5052312;28;20202;-67
2022/04/07 00:08:39;;;;;;;5.67;5.27;;;11.70;99.90;;;;;;5051250;28;20181;-67
2022/04/07 00:11:06;;;;;;;6.30;5.70;;;11.80;99.90;;;;;;5052486;28;20430;-68
2022/04/07 00:13:32;;;;;;;6.27;5.80;;;11.70;99.90;;;;;;5050388;28;20426;-81
2022/04/07 00:16:00;;;;;;;5.10;4.70;;;11.70;99.90;;;;;;5050629;28;20422;-67
2022/04/07 00:18:27;;;;;;;5.20;4.87;;;11.70;99.90;;;;;;5051450;28;20192;-67
2022/04/07 00:20:53;;;;;;;4.27;3.83;;;11.80;99.90;;;;;;5051006;28;20493;-67
2022/04/07 00:23:21;;;;;;;3.63;3.43;;;11.70;99.90;;;;;;5050589;28;20529;-68
2022/04/07 00:25:47;;;;;;;3.97;3.67;;;11.70;99.90;;;;;;5050020;28;20744;-68
2022/04/07 00:28:13;;;;;;;3.60;3.30;;;11.60;99.90;;;;;;5050378;28;20423;-67
2022/04/07 00:30:39;;;;;;;3.10;2.80;;;11.60;99.90;;;;;;5049550;28;20484;-68
2022/04/07 00:33:07;;;;;;;3.43;3.23;;;11.50;99.90;;;;;;5050732;28;20419;-67
2022/04/07 00:35:33;;;;;;;2.90;2.70;;;11.30;99.90;;;;;;5050953;28;20434;-82
2022/04/07 00:37:59;;;;;;;3.53;3.33;;;11.30;99.90;;;;;;5051939;28;20418;-67
2022/04/07 00:40:25;;;;;;;3.53;3.33;;;11.30;99.90;;;;;;5051215;28;20458;-67
2022/04/07 00:42:52;;;;;;;3.70;3.40;;;11.20;99.90;;;;;;5051425;28;20439;-67
2022/04/07 00:45:23;;;;;;;2.90;2.80;;;11.30;99.90;;;;;;5051784;28;20260;-67
2022/04/07 00:47:50;;;;;;;2.83;2.70;;;11.30;99.90;;;;;;5050989;28;20812;-67
2022/04/07 00:50:18;;;;;;;2.83;2.63;;;11.30;99.90;;;;;;5051670;28;20455;-67
2022/04/07 00:52:46;;;;;;;2.60;2.50;;;11.30;99.90;;;;;;5051317;28;20458;-68
2022/04/07 00:55:13;;;;;;;3.13;2.87;;;11.30;99.90;;;;;;5051688;28;20443;-67
2022/04/07 00:57:40;;;;;;;2.90;2.80;;;11.30;99.90;;;;;;5051094;28;20882;-67
2022/04/07 01:00:08;;;;;;;3.83;3.63;;;11.30;99.90;;;;;;5051564;28;20461;-68
2022/04/07 01:02:35;;;;;;;3.70;3.50;;;11.20;99.90;;;;;;5053213;28;20416;-80
2022/04/07 01:05:04;;;;;;;3.50;3.30;;;11.30;99.90;;;;;;5055252;28;20446;-67
2022/04/07 01:07:32;;;;;;;3.63;3.43;;;11.30;99.90;;;;;;5055400;28;20418;-67
2022/04/07 01:09:59;;;;;;;3.67;3.37;;;11.40;99.90;;;;;;5054070;28;20465;-67
2022/04/07 01:12:25;;;;;;;3.60;3.40;;;11.40;99.90;;;;;;5054043;28;20488;-68
2022/04/07 01:14:58;;;;;;;3.60;3.30;;;11.50;99.90;;;;;;5055069;28;20412;-67
2022/04/07 01:17:24;;;;;;;4.30;4.00;;;11.50;99.90;;;;;;5055046;28;20681;-68
2022/04/07 01:19:51;;;;;;;3.90;3.47;;;11.40;99.90;;;;;;5054432;28;20424;-67
2022/04/07 01:22:17;;;;;;;3.60;3.40;;;11.50;99.90;;;;;;5055195;28;20468;-67
2022/04/07 01:24:43;;;;;;;3.47;3.27;;;11.50;99.90;;;;;;5052792;28;20980;-67
2022/04/07 01:27:08;;;;;;;3.50;3.20;;;11.50;99.90;;;;;;5055037;28;20415;-67
2022/04/07 01:29:34;;;;;;;3.90;3.60;;;11.50;99.90;;;;;;5054560;28;20178;-81
2022/04/07 01:32:17;;;;;;;3.43;3.00;;;11.60;99.90;;;;;;5054731;28;20525;-67
2022/04/07 01:34:44;;;;;;;2.90;2.80;;;11.60;99.90;;;;;;5054520;28;20162;-67
2022/04/07 01:37:11;;;;;;;3.30;3.10;;;11.50;99.90;;;;;;5055141;28;20405;-67
2022/04/07 01:39:39;;;;;;;3.50;3.20;;;11.50;99.90;;;;;;5054334;28;20411;-80
2022/04/07 01:42:07;;;;;;;3.93;3.63;;;11.50;99.90;;;;;;5055280;28;20469;-67
2022/04/07 01:44:36;;;;;;;3.20;3.00;;;11.50;99.90;;;;;;5053064;28;20531;-67
2022/04/07 01:47:02;;;;;;;3.53;3.23;;;11.60;99.90;;;;;;5054801;28;20505;-67
2022/04/07 01:49:30;;;;;;;3.37;3.17;;;11.50;99.90;;;;;;5054679;28;20495;-67
2022/04/07 01:51:59;;;;;;;2.73;2.57;;;11.50;99.90;;;;;;5054272;28;20418;-67
2022/04/07 01:54:26;;;;;;;2.60;2.50;;;11.50;99.90;;;;;;5054304;28;20469;-67
2022/04/07 01:56:52;;;;;;;3.30;3.03;;;11.50;99.90;;;;;;5054019;28;20413;-67
2022/04/07 01:59:19;;;;;;;3.30;3.00;;;11.50;99.90;;;;;;5036909;28;20920;-67
2022/04/07 02:01:45;;;;;;;3.00;2.80;;;11.60;99.90;;;;;;5053653;28;20457;-68
2022/04/07 02:04:11;;;;;;;3.50;3.27;;;11.60;99.90;;;;;;5054433;28;20412;-67
2022/04/07 02:06:37;;;;;;;2.80;2.60;;;11.60;99.90;;;;;;5053554;28;20768;-82
2022/04/07 02:09:03;;;;;;;2.50;2.30;;;11.70;99.90;;;;;;5054369;28;20510;-67
2022/04/07 02:11:31;;;;;;;2.80;2.60;;;11.60;99.90;;;;;;5053158;28;20196;-67
2022/04/07 02:13:57;;;;;;;2.30;2.20;;;11.60;99.90;;;;;;5052764;28;20750;-67
2022/04/07 02:16:22;;;;;;;2.87;2.67;;;11.70;99.90;;;;;;5054099;28;20498;-67
2022/04/07 02:18:48;;;;;;;3.00;2.80;;;11.70;99.90;;;;;;5053540;28;20183;-67
2022/04/07 02:21:14;;;;;;;2.67;2.47;;;11.70;99.90;;;;;;5054367;28;20580;-67
2022/04/07 02:23:42;;;;;;;2.83;2.73;;;11.70;99.90;;;;;;5052152;28;20434;-71
2022/04/07 02:26:16;;;;;;;3.40;3.30;;;11.70;99.90;;;;;;5054252;28;20234;-67
2022/04/07 02:28:42;;;;;;;3.10;3.00;;;11.70;99.90;;;;;;5068761;28;20430;-68
2022/04/07 02:31:08;;;;;;;3.37;3.17;;;11.70;99.90;;;;;;5054072;28;20422;-67
2022/04/07 02:33:34;;;;;;;3.40;3.20;;;11.70;99.90;;;;;;5054068;28;20418;-67
2022/04/07 02:36:02;;;;;;;2.90;2.70;;;11.70;99.90;;;;;;5053097;28;20411;-67
2022/04/07 02:38:28;;;;;;;3.33;2.97;;;11.60;99.90;;;;;;5069020;28;20518;-67
2022/04/07 02:40:54;;;;;;;3.37;3.17;;;11.60;99.90;;;;;;5052821;28;20559;-67
2022/04/07 02:43:19;;;;;;;2.90;2.70;;;11.60;99.90;;;;;;5053751;28;20239;-67
2022/04/07 02:45:45;;;;;;;2.80;2.70;;;11.60;99.90;;;;;;5053126;28;20179;-67
2022/04/07 02:48:11;;;;;;;3.37;3.17;;;11.60;99.90;;;;;;5053788;28;20178;-67
2022/04/07 02:50:37;;;;;;;3.00;2.90;;;11.50;99.90;;;;;;5053550;28;20184;-80
2022/04/07 02:53:02;;;;;;;3.20;2.97;;;11.50;99.90;;;;;;5051979;28;20463;-67
2022/04/07 02:55:28;;;;;;;3.40;3.30;;;11.60;99.90;;;;;;5052236;28;20180;-67
2022/04/07 02:57:57;;;;;;;3.13;2.83;;;11.60;99.90;;;;;;5052395;28;20187;-68
2022/04/07 03:00:23;;;;;;;2.90;2.70;;;11.70;99.90;;;;;;5052496;28;20276;-67
2022/04/07 03:02:48;;;;;;;3.50;3.20;;;11.70;99.90;;;;;;5052688;28;20975;-67
2022/04/07 03:05:15;;;;;;;3.00;2.80;;;11.60;99.90;;;;;;5052301;28;20218;-67
2022/04/07 03:07:42;;;;;;;3.07;2.97;;;11.60;99.90;;;;;;5052706;28;20168;-82
2022/04/07 03:10:08;;;;;;;3.03;2.90;;;11.60;99.90;;;;;;5053301;28;20412;-67
2022/04/07 03:12:34;;;;;;;3.20;2.90;;;11.60;99.90;;;;;;5052682;28;20432;-67
2022/04/07 03:15:00;;;;;;;3.37;3.10;;;11.60;99.90;;;;;;5052522;28;20417;-67
2022/04/07 03:17:26;;;;;;;2.97;2.87;;;11.50;99.90;;;;;;5053281;28;20409;-67
2022/04/07 03:19:52;;;;;;;2.83;2.57;;;11.50;99.90;;;;;;5052364;28;20924;-67
2022/04/07 03:22:19;;;;;;;3.13;2.93;;;11.50;99.90;;;;;;5051625;28;20662;-67
2022/04/07 03:24:48;;;;;;;2.87;2.67;;;11.50;99.90;;;;;;5052382;28;20587;-68
2022/04/07 03:27:13;;;;;;;2.63;2.17;;;11.50;99.90;;;;;;5051670;28;20524;-67
2022/04/07 03:29:39;;;;;;;3.07;2.43;;;11.50;99.90;;;;;;5052989;28;20407;-79
2022/04/07 03:32:05;;;;;;;3.40;3.13;;;11.50;99.90;;;;;;5051996;28;20183;-67
2022/04/07 03:34:33;;;;;;;2.90;2.70;;;11.50;99.90;;;;;;5052879;28;20213;-67
2022/04/07 03:37:00;;;;;;;2.90;2.70;;;11.50;99.90;;;;;;5051906;28;20417;-67
2022/04/07 03:39:25;;;;;;;4.77;4.47;;;11.50;99.90;;;;;;5052858;28;20422;-67
2022/04/07 03:41:51;;;;;;;3.53;3.30;;;11.50;99.90;;;;;;5051551;28;20461;-67
2022/04/07 03:44:18;;;;;;;2.90;2.40;;;11.50;99.90;;;;;;5053164;28;20189;-66
2022/04/07 03:46:44;;;;;;;1.90;1.67;;;11.50;99.90;;;;;;5051632;28;20551;-79
2022/04/07 03:49:09;;;;;;;4.30;4.00;;;11.60;99.90;;;;;;5052303;28;20435;-68
2022/04/07 03:51:35;;;;;;;2.80;2.50;;;11.60;99.90;;;;;;5052259;28;20322;-68
2022/04/07 03:54:01;;;;;;;2.93;2.70;;;11.50;99.90;;;;;;5051848;28;20432;-68
2022/04/07 03:56:27;;;;;;;5.20;5.00;;;11.50;99.90;;;;;;5052647;28;20187;-68
2022/04/07 03:58:52;;;;;;;3.60;3.50;;;11.50;99.90;;;;;;5051422;28;20181;-68
2022/04/07 04:01:18;;;;;;;2.97;2.60;;;11.50;99.90;;;;;;5050921;28;20212;-68
2022/04/07 04:03:44;;;;;;;3.43;3.20;;;11.60;99.90;;;;;;5051717;28;20180;-80
2022/04/07 04:06:10;;;;;;;3.67;3.47;;;11.60;99.90;;;;;;5051962;28;20979;-68
2022/04/07 04:08:35;;;;;;;2.80;2.60;;;11.60;99.90;;;;;;5051715;28;20690;-68
2022/04/07 04:11:01;;;;;;;4.00;3.60;;;11.70;99.90;;;;;;5049907;28;20568;-68
2022/04/07 04:13:29;;;;;;;3.47;2.80;;;11.60;99.90;;;;;;5053969;28;20628;-68
2022/04/07 04:15:55;;;;;;;2.23;2.07;;;11.80;99.90;;;;;;5050966;28;20173;-68
2022/04/07 04:18:21;;;;;;;4.80;4.60;;;11.70;99.90;;;;;;5051529;28;20493;-68
2022/04/07 04:20:47;;;;;;;3.17;2.83;;;11.80;99.90;;;;;;5050688;28;20555;-68
2022/04/07 04:23:13;;;;;;;3.00;2.70;;;11.80;99.90;;;;;;5045584;28;20921;-68
2022/04/07 04:25:39;;;;;;;2.50;2.30;;;11.70;99.90;;;;;;5052457;28;20680;-68
2022/04/07 04:28:05;;;;;;;3.80;3.60;;;11.70;99.90;;;;;;5063727;28;20168;-68
2022/04/07 04:30:31;;;;;;;3.50;3.30;;;11.80;99.90;;;;;;5050355;28;20861;-68
2022/04/07 04:32:57;;;;;;;4.33;2.40;;;11.80;99.90;;;;;;5051410;28;20726;-68
2022/04/07 04:35:23;;;;;;;2.20;2.10;;;11.80;99.90;;;;;;5050682;28;20187;-67
2022/04/07 04:37:48;;;;;;;2.37;2.17;;;11.80;99.90;;;;;;5053201;28;20554;-66
2022/04/07 04:40:14;;;;;;;4.53;4.20;;;11.70;99.90;;;;;;5070141;28;20640;-66
2022/04/07 04:42:41;;;;;;;3.10;2.10;;;11.70;99.90;;;;;;5074808;28;20574;-66
2022/04/07 04:45:07;;;;;;;3.50;2.30;;;11.70;99.90;;;;;;5075373;28;20175;-66
2022/04/07 04:47:33;;;;;;;2.23;2.10;;;11.80;99.90;;;;;;5071205;28;20427;-66
2022/04/07 04:49:59;;;;;;;2.60;2.40;;;11.80;99.90;;;;;;5055599;28;20423;-66
2022/04/07 04:52:25;;;;;;;2.60;2.47;;;11.80;99.90;;;;;;5057789;28;20435;-66
2022/04/07 04:54:50;;;;;;;3.27;1.30;;;11.90;99.90;;;;;;5061050;28;20180;-66
2022/04/07 04:57:16;;;;;;;2.20;2.00;;;11.90;99.90;;;;;;5055800;28;20685;-66
2022/04/07 04:59:42;;;;;;;3.53;2.70;;;12.00;99.90;;;;;;5056271;28;20186;-66
2022/04/07 05:02:07;;;;;;;2.70;2.47;;;11.80;99.90;;;;;;5054689;28;20209;-69
2022/04/07 05:04:34;;;;;;;2.70;2.40;;;11.90;99.90;;;;;;5055160;28;20265;-68
2022/04/07 05:07:00;;;;;;;2.50;2.10;;;12.00;99.90;;;;;;5055006;28;20183;-69
2022/04/07 05:09:25;;;;;;;3.90;3.70;;;11.80;99.90;;;;;;5055201;28;20835;-67
2022/04/07 05:11:51;;;;;;;2.80;2.70;;;11.80;99.90;;;;;;5053811;28;20190;-67
2022/04/07 05:14:17;;;;;;;3.20;3.00;;;11.70;99.90;;;;;;5054959;28;20178;-68
2022/04/07 05:16:42;;;;;;;4.00;3.90;;;11.50;99.90;;;;;;5055246;28;20553;-67
2022/04/07 05:19:08;;;;;;;3.10;2.80;;;11.60;99.90;;;;;;5054412;28;20172;-67
2022/04/07 05:21:34;;;;;;;3.23;3.03;;;11.40;99.90;;;;;;5053686;28;20234;-67
2022/04/07 05:24:00;;;;;;;3.67;3.33;;;11.40;99.90;;;;;;5054942;28;20833;-67
2022/04/07 05:26:26;;;;;;;3.77;3.57;;;11.40;99.90;;;;;;5055363;28;20408;-67
2022/04/07 05:28:51;;;;;;;2.70;2.60;;;11.40;99.90;;;;;;5053995;28;20184;-67
2022/04/07 05:31:17;;;;;;;2.40;2.20;;;11.30;99.90;;;;;;5054836;28;20217;-67
2022/04/07 05:33:43;;;;;;;3.47;3.17;;;11.30;99.90;;;;;;5054686;28;20664;-67
2022/04/07 05:36:08;;;;;;;3.60;3.40;;;11.30;99.90;;;;;;5053654;28;20181;-67
2022/04/07 05:38:35;;;;;;;3.67;3.40;;;11.30;99.90;;;;;;5054457;28;20181;-67
2022/04/07 05:41:00;;;;;;;3.57;3.43;;;11.30;99.90;;;;;;5052085;28;20205;-67
2022/04/07 05:43:26;;;;;;;3.93;2.80;;;11.30;99.90;;;;;;5054277;28;20415;-68
2022/04/07 05:45:52;;;;;;;2.70;2.60;;;11.30;99.90;;;;;;5053630;28;20184;-69
2022/04/07 05:48:18;;;;;;;2.67;2.47;;;11.30;99.90;;;;;;5054274;28;20583;-66
2022/04/07 05:50:44;;;;;;;3.20;3.00;;;11.20;99.90;;;;;;5053686;28;20466;-66
2022/04/07 05:53:10;;;;;;;2.80;2.70;;;11.20;99.90;;;;;;5063218;28;20551;-67
2022/04/07 05:55:37;;;;;;;2.30;2.20;;;11.20;99.90;;;;;;5063842;28;20408;-66
2022/04/07 05:58:08;;;;;;;2.27;2.17;;;11.10;99.90;;;;;;5056118;28;20423;-67
2022/04/07 06:00:37;;;;;;;10.20;8.63;;;11.00;99.90;;;;;;5051133;28;20441;-67
2022/04/07 06:03:03;;;;;;;3.43;3.23;;;11.10;99.90;;;;;;5052382;28;20434;-66
2022/04/07 06:05:29;;;;;;;2.30;2.20;;;11.10;99.90;;;;;;5052665;28;20434;-66
2022/04/07 06:07:59;;;;;;;3.60;3.40;;;11.10;99.90;;;;;;5039106;28;20524;-66
2022/04/07 06:10:25;;;;;;;3.80;3.47;;;11.10;99.90;;;;;;5052399;28;20203;-66
2022/04/07 06:12:50;;;;;;;2.80;2.70;;;11.00;99.90;;;;;;5053109;28;20416;-66
2022/04/07 06:15:16;;;;;;;4.20;3.87;;;10.90;99.90;;;;;;5054387;28;20513;-65
2022/04/07 06:17:47;;;;;;;4.73;4.43;;;10.90;99.90;;;;;;5038756;28;20189;-68
2022/04/07 06:20:13;;;;;;;2.50;2.40;;;11.00;99.90;;;;;;5040931;28;20234;-68
2022/04/07 06:22:40;;;;;;;2.70;2.60;;;11.00;99.90;;;;;;5043230;28;20779;-66
2022/04/07 06:25:06;;;;;;;3.70;3.60;;;11.10;99.90;;;;;;5049932;28;20880;-70
2022/04/07 06:27:52;;;;;;;2.87;2.77;;;11.20;99.90;;;;;;5051212;28;20469;-67
2022/04/07 06:30:20;;;;;;;2.70;2.60;;;11.20;99.90;;;;;;5049676;28;20774;-68
2022/04/07 06:32:47;;;;;;;3.13;3.03;;;11.20;99.90;;;;;;5053985;28;20843;-67
2022/04/07 06:35:14;;;;;;;2.90;2.80;;;11.20;99.90;;;;;;5053095;28;20426;-67
2022/04/07 06:37:55;;;;;;;2.10;2.00;;;11.20;99.90;;;;;;5050680;28;20434;-67
2022/04/07 06:40:29;;;;;;;2.30;2.10;;;11.30;99.90;;;;;;5035859;28;20936;-67
2022/04/07 06:42:57;;;;;;;1.73;1.73;;;11.60;99.90;;;;;;5050752;28;20427;-67
2022/04/07 06:45:23;;;;;;;2.30;2.20;;;11.20;99.90;;;;;;5054284;28;20426;-67
2022/04/07 06:47:50;;;;;;;2.60;2.50;;;11.30;99.90;;;;;;5053841;28;20773;-73
2022/04/07 06:50:17;;;;;;;2.60;2.50;;;11.30;99.90;;;;;;5054222;28;20412;-67
2022/04/07 06:52:44;;;;;;;3.00;2.90;;;11.30;99.90;;;;;;5052945;28;20765;-67
2022/04/07 06:55:12;;;;;;;3.20;3.00;;;11.20;99.90;;;;;;5053518;28;20965;-67
2022/04/07 06:57:50;;;;;;;2.23;2.13;;;11.30;99.90;;;;;;5061936;28;20452;-67
2022/04/07 07:00:23;;;;;;;2.13;1.80;;;11.20;99.90;;;;;;5057510;28;20437;-67
2022/04/07 07:03:05;;;;;;;4.90;4.70;;;11.20;99.90;;;;;;5036844;28;20541;-66
2022/04/07 07:05:33;;;;;;;2.67;2.57;;;11.20;99.90;;;;;;5034031;28;20425;-67
2022/04/07 07:08:15;;;;;;;2.70;2.60;;;11.20;99.90;;;;;;5050404;28;20483;-67
2022/04/07 07:10:42;;;;;;;2.40;2.30;;;11.20;99.90;;;;;;5049603;28;20528;-67
2022/04/07 07:13:08;;;;;;;3.40;3.30;;;11.20;99.90;;;;;;5051999;28;20502;-67
2022/04/07 07:15:34;;;;;;;3.90;3.80;;;11.10;99.90;;;;;;5049494;28;20817;-67
2022/04/07 07:18:00;;;;;;;2.43;2.30;;;11.20;99.90;;;;;;5052443;28;20173;-67
2022/04/07 07:20:26;;;;;;;2.80;2.60;;;11.20;99.90;;;;;;5052958;28;20444;-67
2022/04/07 07:22:52;;;;;;;3.73;3.50;;;11.20;99.90;;;;;;5040775;28;20192;-67
2022/04/07 07:25:17;;;;;;;3.77;3.57;;;11.20;99.90;;;;;;5047711;28;20189;-67
2022/04/07 07:27:45;;;;;;;3.60;3.50;;;11.20;99.90;;;;;;5037695;28;20470;-67
2022/04/07 07:30:15;;;;;;;2.83;2.73;;;11.10;99.90;;;;;;5038520;28;20186;-66
2022/04/07 07:32:42;;;;;;;3.20;3.03;;;11.20;99.90;;;;;;5038160;28;20431;-67
2022/04/07 07:35:09;;;;;;;3.23;2.90;;;11.20;99.90;;;;;;5051920;28;20420;-66
2022/04/07 07:37:36;;;;;;;2.80;2.70;;;11.20;99.90;;;;;;5042748;28;20408;-67
2022/04/07 07:40:08;;;;;;;3.50;3.30;;;11.30;99.90;;;;;;5046400;28;20585;-67
2022/04/07 07:42:38;;;;;;;2.50;2.40;;;11.20;99.90;;;;;;5042647;28;20833;-66
2022/04/07 07:45:05;;;;;;;2.70;2.60;;;11.20;99.90;;;;;;5052443;28;20423;-67
2022/04/07 07:47:31;;;;;;;3.10;2.90;;;11.20;99.90;;;;;;5051899;28;20802;-66
2022/04/07 07:49:56;;;;;;;2.50;2.40;;;11.10;99.90;;;;;;5046061;28;20438;-67
2022/04/07 07:52:22;;;;;;;2.50;2.40;;;11.20;99.90;;;;;;5041660;28;20485;-67
2022/04/07 07:54:48;;;;;;;2.73;2.33;;;11.10;99.90;;;;;;5052999;28;20208;-67
2022/04/07 07:57:14;;;;;;;2.40;2.30;;;11.00;99.90;;;;;;5051293;28;20591;-67
2022/04/07 07:59:39;;;;;;;3.00;2.80;;;11.00;99.90;;;;;;5038892;28;20272;-67
2022/04/07 08:02:05;;;;;;;2.10;2.00;;;11.10;99.90;;;;;;5047953;28;20290;-67
2022/04/07 08:04:31;;;;;;;2.77;2.57;;;10.70;99.90;;;;;;5045864;28;20190;-67
2022/04/07 08:06:57;;;;;;;2.30;2.20;;;11.10;99.90;;;;;;5045626;28;20177;-71
2022/04/07 08:09:22;;;;;;;1.63;1.53;;;11.10;99.90;;;;;;5052003;28;20411;-67
2022/04/07 08:11:48;;;;;;;2.10;1.90;;;11.00;99.90;;;;;;5051337;28;20319;-70
2022/04/07 08:14:14;;;;;;;2.50;2.40;;;11.00;99.90;;;;;;5050176;28;20212;-67
2022/04/07 08:16:40;;;;;;;1.70;1.60;;;11.10;99.90;;;;;;5052254;28;20188;-67
2022/04/07 08:19:06;;;;;;;2.60;2.40;;;11.10;99.90;;;;;;5064580;28;20188;-69
2022/04/07 08:21:32;;;;;;;1.73;1.60;;;11.10;99.90;;;;;;5032263;28;20955;-68
2022/04/07 08:23:58;;;;;;;4.07;3.97;;;11.20;99.90;;;;;;5037368;28;20547;-67
2022/04/07 08:26:24;;;;;;;1.80;1.70;;;11.20;99.90;;;;;;5049798;28;20550;-67
2022/04/07 08:28:50;;;;;;;2.10;2.00;;;11.20;99.90;;;;;;5036072;28;20964;-67
2022/04/07 08:31:16;;;;;;;2.00;2.00;;;11.10;99.90;;;;;;5031919;28;20656;-67
2022/04/07 08:33:42;;;;;;;3.93;3.83;;;11.10;99.90;;;;;;5056439;28;20645;-67
2022/04/07 08:36:07;;;;;;;2.63;2.53;;;11.10;99.90;;;;;;5049418;28;20478;-66
2022/04/07 08:38:33;;;;;;;2.50;2.40;;;11.10;99.90;;;;;;5034376;28;20178;-66
2022/04/07 08:41:00;;;;;;;2.30;2.20;;;11.10;99.90;;;;;;5037506;28;20201;-74
2022/04/07 08:43:26;;;;;;;3.70;3.60;;;11.10;99.90;;;;;;5051683;28;20181;-67
2022/04/07 08:45:52;;;;;;;3.23;2.90;;;11.20;99.90;;;;;;5050903;28;20411;-67
2022/04/07 08:48:18;;;;;;;2.40;2.40;;;11.20;99.90;;;;;;5051079;28;20424;-67
2022/04/07 08:50:45;;;;;;;2.40;2.30;;;11.30;99.90;;;;;;5051945;28;20404;-67
2022/04/07 08:53:12;;;;;;;2.73;2.63;;;11.30;99.90;;;;;;5050387;28;20959;-67
2022/04/07 08:55:38;;;;;;;2.10;2.10;;;11.30;99.90;;;;;;5051326;28;20408;-67
2022/04/07 08:58:05;;;;;;;3.27;3.07;;;11.30;99.90;;;;;;5051528;28;20414;-67
2022/04/07 09:00:31;;;;;;;2.47;2.37;;;11.40;99.90;;;;;;5051194;28;20457;-67
2022/04/07 09:02:58;;;;;;;3.00;2.90;;;11.20;99.90;;;;;;5052447;28;20424;-67
2022/04/07 09:05:25;;;;;;;2.63;2.53;;;11.30;99.90;;;;;;5051945;28;20409;-67
2022/04/07 09:07:55;;;;;;;4.47;4.27;;;11.10;99.90;;;;;;5052181;28;20416;-67
2022/04/07 09:10:22;;;;;;;2.40;2.30;;;10.80;99.90;;;;;;5051568;28;20521;-67
2022/04/07 09:12:49;;;;;;;1.93;1.90;;;11.20;99.90;;;;;;5052116;28;20414;-67
2022/04/07 09:15:15;;;;;;;4.60;4.40;;;11.20;99.90;;;;;;5051445;28;20406;-67
2022/04/07 09:17:52;;;;;;;3.93;3.83;;;11.20;99.90;;;;;;5052150;28;20444;-67
2022/04/07 09:20:19;;;;;;;2.57;2.50;;;11.40;99.90;;;;;;5051288;28;20842;-67
2022/04/07 09:22:53;;;;;;;3.90;3.80;;;11.30;99.90;;;;;;5052120;28;20471;-67
2022/04/07 09:25:19;;;;;;;3.50;3.40;;;11.40;99.90;;;;;;5054086;28;20654;-67
2022/04/07 09:27:48;;;;;;;1.43;1.43;;;11.70;99.90;;;;;;5055751;28;20413;-67
2022/04/07 09:30:14;;;;;;;2.03;2.03;;;11.50;99.90;;;;;;5055080;28;20173;-67
2022/04/07 09:32:44;;;;;;;2.00;2.00;;;11.60;99.90;;;;;;5055678;28;20410;-68
2022/04/07 09:35:11;;;;;;;3.47;3.37;;;11.70;99.90;;;;;;5054891;28;20392;-67
2022/04/07 09:37:42;;;;;;;1.70;1.70;;;11.80;99.90;;;;;;5055616;28;20921;-67
2022/04/07 09:40:12;;;;;;;1.70;1.70;;;11.80;99.90;;;;;;5054874;28;20404;-67
2022/04/07 09:42:38;;;;;;;1.83;1.83;;;11.90;99.90;;;;;;5055502;28;20452;-67
2022/04/07 09:45:07;;;;;;;1.73;1.73;;;12.00;99.90;;;;;;5054896;28;20410;-68
2022/04/07 09:47:39;;;;;;;2.80;2.70;;;12.00;99.90;;;;;;5055582;28;20412;-67
2022/04/07 09:50:29;;;;;;;2.83;2.73;;;12.10;99.90;;;;;;5054770;28;20518;-67
2022/04/07 09:53:00;;;;;;;2.20;2.13;;;12.10;99.90;;;;;;5055308;28;20512;-67
2022/04/07 09:55:31;;;;;;;1.50;1.50;;;12.10;99.90;;;;;;5055181;28;20481;-67
2022/04/07 09:57:58;;;;;;;1.60;1.50;;;12.00;99.90;;;;;;5054301;28;20404;-67
2022/04/07 10:00:26;;;;;;;3.43;1.60;;;11.70;99.90;;;;;;5054622;28;20508;-67
2022/04/07 10:02:53;;;;;;;1.60;1.50;;;11.50;99.90;;;;;;5055125;28;20419;-67
2022/04/07 10:05:20;;;;;;;2.63;2.53;;;11.30;99.90;;;;;;5053813;28;20496;-67
2022/04/07 10:07:48;;;;;;;2.10;2.00;;;11.10;99.90;;;;;;5054498;28;20540;-68
2022/04/07 10:10:14;;;;;;;2.63;1.57;;;10.90;99.90;;;;;;5053749;28;20430;-67
2022/04/07 10:12:41;;;;;;;1.70;1.70;;;10.50;99.90;;;;;;5036531;28;20422;-67
2022/04/07 10:15:07;;;;;;;1.70;1.60;;;10.70;99.90;;;;;;5053999;28;20412;-68
2022/04/07 10:17:35;;;;;;;1.10;1.10;;;10.60;99.90;;;;;;5054441;28;20419;-67
2022/04/07 10:20:17;;;;;;;1.00;1.00;;;10.60;99.90;;;;;;5053874;28;20455;-67
2022/04/07 10:22:49;;;;;;;0.90;0.90;;;10.60;99.90;;;;;;5052294;28;20448;-67
2022/04/07 10:25:16;;;;;;;3.77;3.67;;;10.50;99.90;;;;;;5054145;28;20412;-67
2022/04/07 10:27:49;;;;;;;1.73;1.73;;;10.60;99.90;;;;;;5054622;28;20764;-67
2022/04/07 10:30:16;;;;;;;2.13;2.13;;;10.60;99.90;;;;;;5054091;28;20410;-67
2022/04/07 10:32:47;;;;;;;2.00;1.90;;;10.70;99.90;;;;;;5054277;28;20508;-67
2022/04/07 10:35:32;;;;;;;1.80;1.80;;;10.70;99.90;;;;;;5053428;28;20393;-67
2022/04/07 10:37:59;;;;;;;1.57;1.57;;;10.90;99.90;;;;;;5051807;28;20849;-67
2022/04/07 10:40:51;;;;;;;1.93;1.83;;;10.80;99.90;;;;;;5052470;28;20428;-68
2022/04/07 10:43:21;;;;;;;2.00;1.90;;;10.70;99.90;;;;;;5050965;28;20440;-67
2022/04/07 10:45:51;;;;;;;2.07;1.87;;;10.80;99.90;;;;;;5052897;28;20599;-67
2022/04/07 10:48:21;;;;;;;3.57;3.47;;;10.90;99.90;;;;;;5052399;28;20884;-67
2022/04/07 10:50:52;;;;;;;1.90;1.80;;;11.00;99.90;;;;;;5053101;28;20450;-67
2022/04/07 10:53:40;;;;;;;2.40;2.30;;;11.10;99.90;;;;;;5052097;28;20886;-67
2022/04/07 10:56:21;;;;;;;1.60;1.60;;;11.30;99.90;;;;;;5052002;28;20403;-68
2022/04/07 10:58:56;;;;;;;1.40;1.30;;;11.50;99.90;;;;;;5052865;28;20821;-67
2022/04/07 11:01:30;;;;;;;2.50;1.70;;;11.60;99.90;;;;;;5051931;28;21026;-68
2022/04/07 11:04:18;;;;;;;1.50;1.50;;;11.80;99.90;;;;;;5052225;28;20420;-68
2022/04/07 11:07:15;;;;;;;1.40;1.40;;;11.90;99.90;;;;;;5050538;28;20414;-67
2022/04/07 11:09:46;;;;;;;2.80;2.60;;;12.00;99.90;;;;;;5050130;28;20439;-69
2022/04/07 11:12:17;;;;;;;2.60;2.50;;;12.10;99.90;;;;;;5051973;28;20490;-67
2022/04/07 11:14:46;;;;;;;3.10;2.90;;;12.10;99.90;;;;;;5049984;28;20775;-66
2022/04/07 11:17:32;;;;;;;2.20;2.10;;;12.10;99.90;;;;;;5050813;28;20454;-66
2022/04/07 11:20:15;;;;;;;1.80;1.70;;;12.20;99.90;;;;;;5053319;28;20476;-66
2022/04/07 11:22:51;;;;;;;3.50;3.40;;;12.30;99.90;;;;;;5052364;28;20454;-66
2022/04/07 11:25:39;;;;;;;1.80;1.80;;;12.50;99.90;;;;;;5051643;28;20952;-67
2022/04/07 11:28:18;;;;;;;2.10;2.10;;;12.70;99.90;;;;;;5052462;28;20782;-67
2022/04/07 11:30:58;;;;;;;2.10;1.97;;;12.90;99.90;;;;;;5051216;28;20419;-69
2022/04/07 11:33:26;;;;;;;2.47;2.47;;;13.20;99.90;;;;;;5050649;28;20414;-69
2022/04/07 11:35:58;;;;;;;2.20;2.10;;;13.40;99.90;;;;;;5049598;28;20415;-66
2022/04/07 11:38:27;;;;;;;2.50;2.30;;;13.70;99.90;;;;;;5051606;28;20431;-68
2022/04/07 11:41:03;;;;;;;2.40;2.40;;;13.90;99.90;;;;;;5049031;28;20451;-67
2022/04/07 11:43:30;;;;;;;1.83;1.73;;;14.20;99.90;;;;;;5051276;28;20424;-68
2022/04/07 11:45:56;;;;;;;2.47;2.37;;;14.40;99.90;;;;;;5051836;28;20401;-67
2022/04/07 11:48:23;;;;;;;2.20;2.20;;;14.70;99.90;;;;;;5050342;28;20772;-67
2022/04/07 11:50:51;;;;;;;2.30;2.20;;;14.80;97.80;;;;;;5051851;28;20423;-67
2022/04/07 11:53:17;;;;;;;2.20;2.10;;;15.00;95.60;;;;;;5051107;28;20896;-68
2022/04/07 11:55:44;;;;;;;2.70;2.60;;;15.00;94.30;;;;;;5051355;28;20424;-67
2022/04/07 11:58:10;;;;;;;2.30;2.20;;;15.10;92.10;;;;;;5050642;28;20774;-68
2022/04/07 12:00:36;;;;;;;2.73;2.63;;;15.10;90.80;;;;;;5051572;28;20502;-68
2022/04/07 12:03:04;;;;;;;1.70;1.60;;;15.10;90.70;;;;;;5051501;28;20512;-67
2022/04/07 12:05:32;;;;;;;1.80;1.80;;;15.20;89.30;;;;;;5050111;28;20655;-66
2022/04/07 12:08:11;;;;;;;2.60;2.50;;;15.30;86.50;;;;;;5052761;28;20417;-66
2022/04/07 12:10:39;;;;;;;2.70;2.50;;;15.30;84.90;;;;;;5052789;28;20417;-66
2022/04/07 12:13:06;;;;;;;1.63;1.63;;;15.30;83.40;;;;;;5052555;28;20417;-66
2022/04/07 12:15:34;;;;;;;3.57;3.37;;;15.30;84.10;;;;;;5052476;28;20930;-66
2022/04/07 12:18:01;;;;;;;2.30;2.20;;;15.20;83.80;;;;;;5052379;28;20420;-66
2022/04/07 12:20:27;;;;;;;2.20;2.10;;;15.30;86.90;;;;;;5049805;28;21159;-68
2022/04/07 12:23:08;;;;;;;4.50;2.50;;;15.30;84.80;;;;;;5050473;28;20428;-66
2022/04/07 12:25:35;;;;;;;2.00;1.90;;;15.30;83.30;;;;;;5049357;28;20427;-66
2022/04/07 12:28:15;;;;;;;3.07;1.63;;;15.10;81.80;;;;;;5048151;28;20410;-66
2022/04/07 12:30:42;;;;;;;2.00;1.90;;;15.00;84.70;;;;;;5051930;28;20892;-66
2022/04/07 12:33:08;;;;;;;3.50;3.30;;;14.80;85.80;;;;;;5050295;28;20485;-74
2022/04/07 12:35:49;;;;;;;4.30;4.10;;;14.70;87.80;;;;;;5050086;28;20504;-67
2022/04/07 12:38:15;;;;;;;2.33;2.23;;;14.80;90.20;;;;;;5050826;28;20443;-67
2022/04/07 12:40:41;;;;;;;3.00;2.90;;;15.00;90.00;;;;;;5050696;28;20413;-69
2022/04/07 12:43:07;;;;;;;2.17;2.10;;;15.30;91.00;;;;;;5050135;28;20218;-70
2022/04/07 12:45:34;;;;;;;2.10;1.90;;;15.50;85.70;;;;;;5050951;28;20419;-70
2022/04/07 12:48:10;;;;;;;2.20;2.10;;;15.60;85.10;;;;;;5051067;28;20258;-67
2022/04/07 12:50:36;;;;;;;2.10;1.90;;;15.80;85.50;;;;;;5048253;28;20778;-67
2022/04/07 12:53:02;;;;;;;2.70;2.60;;;16.00;79.40;;;;;;5050829;28;20790;-68